logo tempoitalia

Diretta Meteo Madison, Stati Uniti (USA)lunedì 31 agosto ore 01:35

Mappa
Sereno 23 °C Sereno 24 Ore: T.min 20 T.max 35
Ponente Sud/Sud-Ovest Km/h 13 Punto di rugiada: 20 °C Umidità: 83% Visibilità: 10 Km
Il sole sorge alle: 06:50 Il sole tramonta alle: 20:06
31 Agosto 2026 01:35 tempo osservato: Sereno Sereno 23 83 1008 vento: Nord S/SO 13
31 Agosto 2026 01:15 tempo osservato: Sereno Sereno 22 94 1008 vento: Nord S/SO 11.1
31 Agosto 2026 00:55 tempo osservato: Sereno Sereno 22 88 1008 vento: Nord S 11.1
31 Agosto 2026 00:35 tempo osservato: Sereno Sereno 22 88 1007 vento: Nord S 11.1
31 Agosto 2026 00:15 tempo osservato: Sereno Sereno 23 78 1007 vento: Nord S/SO 11.1
30 Agosto 2026 23:55 tempo osservato: Sereno Sereno 23 78 1008 vento: Nord S 13
30 Agosto 2026 23:35 tempo osservato: Sereno Sereno 23 73 1008 vento: Nord S 11.1
30 Agosto 2026 23:15 tempo osservato: Sereno Sereno 23 73 1008 vento: Nord S 13
30 Agosto 2026 22:55 tempo osservato: Sereno Sereno 25 65 1008 vento: Nord S/SO 11.1
30 Agosto 2026 22:35 tempo osservato: Sereno Sereno 25 65 1007 vento: Nord S/SO 11.1
30 Agosto 2026 22:15 tempo osservato: Sereno Sereno 26 61 1007 vento: Nord S/SO 13
30 Agosto 2026 21:55 tempo osservato: Sereno Sereno 26 57 1007 vento: Nord SO 11.1
30 Agosto 2026 21:35 tempo osservato: Sereno Sereno 27 54 1007 vento: Nord SO 16.7
30 Agosto 2026 21:15 tempo osservato: Sereno Sereno 27 54 1007 vento: Nord S/SO 16.7
30 Agosto 2026 20:55 tempo osservato: Sereno Sereno 26 57 1007 vento: Nord S/SO 13
30 Agosto 2026 20:35 tempo osservato: Sereno Sereno 26 57 1006 vento: Nord SO 13
30 Agosto 2026 20:15 tempo osservato: Sereno Sereno 26 61 1006 vento: Nord S 7.4
30 Agosto 2026 19:55 tempo osservato: Sereno Sereno 27 57 1006 vento: Nord S/SO 7.4
30 Agosto 2026 19:35 tempo osservato: Sereno Sereno 28 54 1006 vento: Nord S/SO 9.3
30 Agosto 2026 19:15 tempo osservato: Sereno Sereno 29 48 1007 vento: Nord SO 11.1
30 Agosto 2026 18:55 tempo osservato: Sereno Sereno 30 48 1006 vento: Nord SO 11.1
30 Agosto 2026 18:35 tempo osservato: Sereno Sereno 30 51 1006 vento: Nord SO 9.3
30 Agosto 2026 18:15 tempo osservato: Sereno Sereno 30 51 1006 vento: Nord SO 9.3
30 Agosto 2026 17:55 tempo osservato: Sereno Sereno 31 52 1006 vento: Nord S/SO 13
30 Agosto 2026 17:35 tempo osservato: Sereno Sereno 32 49 1006 vento: Nord S/SO 16.7
30 Agosto 2026 17:15 tempo osservato: Sereno Sereno 32 49 1006 vento: Nord SO 16.7
30 Agosto 2026 16:55 tempo osservato: Sereno Sereno 34 41 1006 vento: Nord SO 22.2
30 Agosto 2026 16:35 tempo osservato: Sereno Sereno 34 41 1006 vento: Nord SO 16.7
30 Agosto 2026 16:15 tempo osservato: Sereno Sereno 35 39 1006 vento: Nord SO 14.8
30 Agosto 2026 15:55 tempo osservato: Sereno Sereno 35 39 1006 vento: Nord SO 16.7
30 Agosto 2026 15:35 tempo osservato: Sereno Sereno 35 36 1006 vento: Nord O/SO 13
30 Agosto 2026 15:15 tempo osservato: Sereno Sereno 34 41 1006 vento: Nord SO 7.4
30 Agosto 2026 14:55 tempo osservato: Sereno Sereno 34 41 1006 vento: Nord S/SO 13
30 Agosto 2026 14:35 tempo osservato: Sereno Sereno 34 41 1006 vento: Nord S/SO 13
30 Agosto 2026 14:15 tempo osservato: Sereno Sereno 33 43 1007 vento: Nord SO 18.5
30 Agosto 2026 13:55 tempo osservato: Sereno Sereno 33 49 1007 vento: Nord S/SO 14.8
30 Agosto 2026 13:35 tempo osservato: Sereno Sereno 32 49 1007 vento: Nord N 7.4
30 Agosto 2026 13:15 tempo osservato: Sereno Sereno 32 49 1007 vento: Nord S/SO 13
30 Agosto 2026 12:55 tempo osservato: Sereno Sereno 31 52 1007 vento: Nord SO 14.8
30 Agosto 2026 12:35 tempo osservato: Sereno Sereno 31 52 1007 vento: Nord SO 13
30 Agosto 2026 12:15 tempo osservato: Sereno Sereno 31 55 1007 vento: Nord SO 14.8
30 Agosto 2026 11:55 tempo osservato: Sereno Sereno 30 58 1007 vento: Nord S/SO 9.3
30 Agosto 2026 11:35 tempo osservato: Sereno Sereno 29 74 1007 vento: Nord SO 9.3
30 Agosto 2026 11:15 tempo osservato: Sereno Sereno 28 88 1007 vento: Nord S 9.3
30 Agosto 2026 10:55 tempo osservato: Sereno Sereno 27 94 1007 vento: Nord S 7.4
30 Agosto 2026 10:35 tempo osservato: Sereno Sereno 26 100 1007 vento: Nord S/SE 9.3
30 Agosto 2026 10:15 tempo osservato: Sereno Sereno 25 100 1007 vento: Nord N 7.4
30 Agosto 2026 09:55 tempo osservato: Sereno Sereno 24 100 1007 vento: Nord S 9.3
30 Agosto 2026 09:35 tempo osservato: Sereno Sereno 23 100 1007 vento: Nord S/SE 9.3
30 Agosto 2026 09:15 tempo osservato: Sereno Sereno 22 100 1007 vento: Nord SE 7.4
30 Agosto 2026 08:55 tempo osservato: Sereno Sereno 22 100 1007 vento: Nord N 0
30 Agosto 2026 08:35 tempo osservato: Sereno Sereno 21 100 1007 vento: Nord E 7.4
30 Agosto 2026 08:15 tempo osservato: Foschia Foschia 20 100 1007 vento: Nord E/NE 7.4
30 Agosto 2026 07:55 tempo osservato: Foschia Foschia 20 100 1007 vento: Nord E 7.4
30 Agosto 2026 07:35 tempo osservato: Foschia Foschia 20 100 1007 vento: Nord E 7.4
30 Agosto 2026 07:15 tempo osservato: Foschia Foschia 20 100 1007 vento: Nord N 0
30 Agosto 2026 06:55 tempo osservato: Foschia Foschia 20 100 1007 vento: Nord E/NE 11.1
30 Agosto 2026 06:35 tempo osservato: Sereno Sereno 20 100 1007 vento: Nord E/NE 7.4
30 Agosto 2026 06:15 tempo osservato: Sereno Sereno 20 100 1007 vento: Nord E 7.4
30 Agosto 2026 05:55 tempo osservato: Poco Nuvoloso Poco Nuvoloso 20 100 1007 vento: Nord N 5.5
30 Agosto 2026 05:35 tempo osservato: Sereno Sereno 20 100 1007 vento: Nord N 5.5
30 Agosto 2026 05:15 tempo osservato: Sereno Sereno 20 0 1007 vento: Nord E/SE 7.4
30 Agosto 2026 04:55 tempo osservato: Sereno Sereno 20 100 1007 vento: Nord E 7.4
30 Agosto 2026 04:35 tempo osservato: Sereno Sereno 20 0 1007 vento: Nord E/NE 7.4
30 Agosto 2026 04:15 tempo osservato: Sereno Sereno 21 100 1007 vento: Nord E 7.4
30 Agosto 2026 03:55 tempo osservato: Sereno Sereno 21 100 1007 vento: Nord E/NE 9.3
30 Agosto 2026 03:35 tempo osservato: Sereno Sereno 21 100 1007 vento: Nord N 0
30 Agosto 2026 03:15 tempo osservato: Sereno Sereno 21 100 1007 vento: Nord N 0
30 Agosto 2026 02:55 tempo osservato: Sereno Sereno 21 100 1007 vento: Nord NE 9.3
30 Agosto 2026 02:35 tempo osservato: Sereno Sereno 22 100 1007 vento: Nord N 0
30 Agosto 2026 02:15 tempo osservato: Sereno Sereno 21 100 1007 vento: Nord SE 9.3
30 Agosto 2026 01:55 tempo osservato: Sereno Sereno 21 100 1007 vento: Nord N 5.5
30 Agosto 2026 01:35 tempo osservato: Sereno Sereno 21 100 1007 vento: Nord S/SE 11.1